Wetterdaten: Woche 11.07.16 - 17.07.16 (KW28)
Datum Zeit Temp. A. Feuchte A. Luftdruck Regen Wind Richtung Sonnenschein ET UV Solar Taupunkt Windchill Windben Empfang
11.07.2016 00:00 21,6 C 79 % 1010,2 hPa 0,0 l/m 4,7 km/h (1 Bft) S-SO 0,00 h 0,000 mm 0,0 UV-I 0 W/m 17,7 C 21,5 C 9,2 km/h (2 Bft) 99,66 %
11.07.2016 01:00 21,0 C 82 % 1010,4 hPa 0,0 l/m 2,2 km/h (1 Bft) S 0,00 h 0,025 mm 0,0 UV-I 0 W/m 17,7 C 21,0 C 4,1 km/h (1 Bft) 98,18 %
11.07.2016 02:00 20,0 C 86 % 1010,3 hPa 0,0 l/m 1,8 km/h (1 Bft) S-SO 0,00 h 0,000 mm 0,0 UV-I 0 W/m 17,6 C 20,0 C 3,6 km/h (1 Bft) 99,72 %
11.07.2016 03:00 19,4 C 89 % 1010,2 hPa 0,0 l/m 2,7 km/h (1 Bft) S-SO 0,00 h 0,000 mm 0,0 UV-I 0 W/m 17,5 C 19,4 C 4,4 km/h (1 Bft) 97,85 %
11.07.2016 04:00 18,6 C 91 % 1010,5 hPa 0,0 l/m 1,6 km/h (1 Bft) S 0,00 h 0,000 mm 0,0 UV-I 0 W/m 17,1 C 18,6 C 3,1 km/h (1 Bft) 99,36 %
11.07.2016 05:00 18,3 C 92 % 1010,8 hPa 0,0 l/m 2,5 km/h (1 Bft) S-SW 0,07 h 0,000 mm 0,0 UV-I 13 W/m 17,0 C 18,3 C 4,2 km/h (1 Bft) 98,14 %
11.07.2016 06:00 19,4 C 90 % 1010,9 hPa 0,0 l/m 1,5 km/h (1 Bft) S-SW 0,07 h 0,000 mm 0,0 UV-I 62 W/m 17,8 C 19,4 C 3,1 km/h (1 Bft) 99,07 %
11.07.2016 07:00 22,0 C 82 % 1011,2 hPa 0,0 l/m 1,8 km/h (1 Bft) W 1,00 h 0,051 mm 0,7 UV-I 225 W/m 18,7 C 22,0 C 3,6 km/h (1 Bft) 97,91 %
11.07.2016 08:00 24,4 C 72 % 1011,2 hPa 0,0 l/m 1,5 km/h (1 Bft) S 1,00 h 0,153 mm 1,6 UV-I 412 W/m 19,0 C 24,4 C 3,9 km/h (1 Bft) 99,45 %
11.07.2016 09:00 26,5 C 66 % 1011,3 hPa 0,0 l/m 2,1 km/h (1 Bft) N-NO 0,83 h 0,279 mm 2,7 UV-I 478 W/m 19,7 C 26,5 C 4,3 km/h (1 Bft) 98,20 %
11.07.2016 10:00 28,0 C 58 % 1011,2 hPa 0,0 l/m 1,9 km/h (1 Bft) SW 1,00 h 0,330 mm 4,1 UV-I 654 W/m 19,0 C 28,0 C 4,3 km/h (1 Bft) 98,88 %
11.07.2016 11:00 29,1 C 53 % 1011,3 hPa 0,0 l/m 2,2 km/h (1 Bft) N 1,00 h 0,432 mm 4,8 UV-I 679 W/m 18,4 C 29,1 C 4,8 km/h (1 Bft) 98,81 %
11.07.2016 12:00 30,1 C 49 % 1011,0 hPa 0,0 l/m 3,0 km/h (1 Bft) NO 0,90 h 0,457 mm 5,7 UV-I 736 W/m 18,3 C 30,1 C 5,6 km/h (1 Bft) 98,29 %
11.07.2016 13:00 31,4 C 45 % 1010,6 hPa 0,0 l/m 4,8 km/h (1 Bft) O-NO 1,00 h 0,534 mm 6,2 UV-I 864 W/m 18,1 C 31,4 C 8,8 km/h (2 Bft) 99,11 %
11.07.2016 14:00 31,7 C 44 % 1010,0 hPa 0,0 l/m 3,3 km/h (1 Bft) NO 1,00 h 0,635 mm 5,4 UV-I 775 W/m 18,0 C 31,7 C 6,4 km/h (2 Bft) 98,49 %
11.07.2016 15:00 32,2 C 42 % 1009,2 hPa 0,0 l/m 3,7 km/h (1 Bft) NW 1,00 h 0,558 mm 4,4 UV-I 711 W/m 17,8 C 32,2 C 7,7 km/h (2 Bft) 99,62 %
11.07.2016 16:00 32,6 C 41 % 1009,0 hPa 0,0 l/m 4,9 km/h (1 Bft) N-NO 1,00 h 0,534 mm 3,2 UV-I 638 W/m 17,5 C 32,6 C 9,9 km/h (2 Bft) 98,45 %
11.07.2016 17:00 32,1 C 41 % 1008,5 hPa 0,0 l/m 9,6 km/h (2 Bft) NO 0,87 h 0,482 mm 1,6 UV-I 397 W/m 17,2 C 32,1 C 15,0 km/h (3 Bft) 98,58 %
11.07.2016 18:00 29,5 C 48 % 1008,2 hPa 0,0 l/m 10,8 km/h (2 Bft) O-SO 0,10 h 0,381 mm 0,6 UV-I 120 W/m 17,3 C 29,1 C 17,0 km/h (3 Bft) 99,05 %
11.07.2016 19:00 27,3 C 53 % 1007,7 hPa 0,0 l/m 11,2 km/h (2 Bft) O-SO 0,00 h 0,178 mm 0,0 UV-I 30 W/m 16,9 C 26,6 C 15,9 km/h (3 Bft) 97,59 %
11.07.2016 20:00 25,6 C 64 % 1007,7 hPa 4,6 l/m 5,3 km/h (1 Bft) SO 0,00 h 0,102 mm 0,0 UV-I 9 W/m 18,2 C 25,6 C 8,3 km/h (2 Bft) 99,51 %
11.07.2016 21:00 22,5 C 83 % 1010,5 hPa 13,0 l/m 10,5 km/h (2 Bft) SW 0,00 h 0,051 mm 0,0 UV-I 0 W/m 19,4 C 21,3 C 16,4 km/h (3 Bft) 97,30 %
11.07.2016 22:00 20,1 C 95 % 1011,9 hPa 0,4 l/m 3,4 km/h (1 Bft) N-NW 0,00 h 0,025 mm 0,0 UV-I 0 W/m 19,2 C 20,0 C 6,3 km/h (2 Bft) 99,37 %
11.07.2016 23:00 19,9 C 95 % 1012,2 hPa 0,0 l/m 4,8 km/h (1 Bft) S-SO 0,00 h 0,000 mm 0,0 UV-I 0 W/m 19,1 C 19,7 C 9,3 km/h (2 Bft) 98,20 %
12.07.2016 00:00 20,1 C 96 % 1012,2 hPa 0,0 l/m 1,8 km/h (1 Bft) S-SO 0,00 h 0,000 mm 0,0 UV-I 0 W/m 19,4 C 20,1 C 3,4 km/h (1 Bft) 99,74 %
12.07.2016 01:00 20,0 C 96 % 1012,3 hPa 0,6 l/m 2,9 km/h (1 Bft) W-SW 0,00 h 0,000 mm 0,0 UV-I 0 W/m 19,4 C 19,9 C 4,8 km/h (1 Bft) 98,02 %
12.07.2016 02:00 19,7 C 96 % 1012,1 hPa 3,8 l/m 4,9 km/h (1 Bft) SW 0,00 h 0,000 mm 0,0 UV-I 0 W/m 19,1 C 19,4 C 8,3 km/h (2 Bft) 99,37 %
12.07.2016 03:00 19,6 C 97 % 1011,2 hPa 1,0 l/m 1,7 km/h (1 Bft) N 0,00 h 0,000 mm 0,0 UV-I 0 W/m 19,1 C 19,6 C 2,6 km/h (1 Bft) 98,15 %
12.07.2016 04:00 19,4 C 97 % 1010,6 hPa 0,0 l/m 2,9 km/h (1 Bft) O-NO 0,00 h 0,000 mm 0,0 UV-I 0 W/m 18,9 C 19,4 C 4,5 km/h (1 Bft) 99,39 %
12.07.2016 05:00 19,3 C 98 % 1010,9 hPa 0,0 l/m 0,7 km/h (0 Bft) O 0,00 h 0,000 mm 0,0 UV-I 9 W/m 18,9 C 19,3 C 2,2 km/h (1 Bft) 97,92 %
12.07.2016 06:00 19,5 C 98 % 1011,3 hPa 0,0 l/m 0,6 km/h (0 Bft) O 0,03 h 0,000 mm 0,0 UV-I 50 W/m 19,2 C 19,5 C 1,9 km/h (1 Bft) 99,51 %
12.07.2016 07:00 19,8 C 97 % 1011,8 hPa 0,2 l/m 2,7 km/h (1 Bft) S 0,00 h 0,025 mm 0,0 UV-I 61 W/m 19,3 C 19,8 C 4,6 km/h (1 Bft) 98,13 %
12.07.2016 08:00 20,3 C 95 % 1011,9 hPa 0,0 l/m 3,7 km/h (1 Bft) S-SW 0,17 h 0,026 mm 1,0 UV-I 217 W/m 19,6 C 20,3 C 6,2 km/h (2 Bft) 98,98 %
12.07.2016 09:00 21,9 C 86 % 1011,5 hPa 0,0 l/m 5,1 km/h (1 Bft) W 0,80 h 0,127 mm 2,8 UV-I 498 W/m 19,4 C 21,8 C 9,4 km/h (2 Bft) 97,79 %
12.07.2016 10:00 22,5 C 83 % 1011,3 hPa 0,0 l/m 2,7 km/h (1 Bft) W-NW 0,40 h 0,305 mm 2,8 UV-I 387 W/m 19,4 C 22,5 C 5,8 km/h (2 Bft) 99,70 %
12.07.2016 11:00 23,4 C 78 % 1011,2 hPa 0,0 l/m 2,8 km/h (1 Bft) NW 0,50 h 0,228 mm 4,1 UV-I 498 W/m 19,4 C 23,4 C 5,8 km/h (2 Bft) 98,20 %
12.07.2016 12:00 24,0 C 76 % 1010,9 hPa 0,0 l/m 3,3 km/h (1 Bft) N-NW 0,40 h 0,330 mm 4,6 UV-I 552 W/m 19,6 C 24,0 C 8,0 km/h (2 Bft) 99,65 %
12.07.2016 13:00 24,2 C 74 % 1010,6 hPa 0,0 l/m 3,0 km/h (1 Bft) W 0,20 h 0,356 mm 3,3 UV-I 369 W/m 19,2 C 24,1 C 6,7 km/h (2 Bft) 97,93 %
12.07.2016 14:00 22,4 C 83 % 1010,3 hPa 1,6 l/m 1,4 km/h (1 Bft) N-NW 0,00 h 0,254 mm 0,7 UV-I 59 W/m 19,3 C 22,4 C 3,0 km/h (1 Bft) 99,31 %
12.07.2016 15:00 21,5 C 91 % 1009,8 hPa 1,2 l/m 2,7 km/h (1 Bft) NW 0,10 h 0,051 mm 2,0 UV-I 273 W/m 19,9 C 21,5 C 5,3 km/h (1 Bft) 88,88 %
12.07.2016 16:00 22,9 C 85 % 1009,1 hPa 0,0 l/m 3,4 km/h (1 Bft) NW 0,73 h 0,152 mm 3,1 UV-I 542 W/m 20,3 C 22,9 C 7,1 km/h (2 Bft) 86,09 %
12.07.2016 17:00 23,3 C 80 % 1009,1 hPa 0,0 l/m 2,0 km/h (1 Bft) N-NW 0,40 h 0,356 mm 1,4 UV-I 285 W/m 19,6 C 23,3 C 4,8 km/h (1 Bft) 98,06 %
12.07.2016 18:00 22,0 C 84 % 1008,4 hPa 0,0 l/m 2,2 km/h (1 Bft) N 0,00 h 0,178 mm 0,6 UV-I 49 W/m 19,1 C 22,0 C 5,0 km/h (1 Bft) 98,88 %
12.07.2016 19:00 20,2 C 87 % 1008,8 hPa 14,4 l/m 12,2 km/h (2 Bft) W-SW 0,00 h 0,025 mm 0,0 UV-I 6 W/m 17,9 C 18,3 C 21,5 km/h (4 Bft) 98,01 %
12.07.2016 20:00 18,0 C 95 % 1011,3 hPa 2,4 l/m 14,0 km/h (3 Bft) W-SW 0,00 h 0,025 mm 0,0 UV-I 6 W/m 17,2 C 15,2 C 21,4 km/h (4 Bft) 99,49 %
12.07.2016 21:00 17,7 C 96 % 1011,8 hPa 1,2 l/m 6,2 km/h (2 Bft) SW 0,00 h 0,000 mm 0,0 UV-I 0 W/m 17,0 C 17,5 C 10,1 km/h (2 Bft) 98,25 %
12.07.2016 22:00 17,6 C 96 % 1012,0 hPa 0,0 l/m 7,2 km/h (2 Bft) SW 0,00 h 0,000 mm 0,0 UV-I 0 W/m 16,9 C 17,2 C 11,1 km/h (2 Bft) 99,53 %
12.07.2016 23:00 17,7 C 96 % 1012,0 hPa 2,0 l/m 7,5 km/h (2 Bft) SW 0,00 h 0,000 mm 0,0 UV-I 0 W/m 17,0 C 17,1 C 11,6 km/h (2 Bft) 97,97 %
13.07.2016 00:00 16,7 C 95 % 1012,1 hPa 3,0 l/m 12,0 km/h (2 Bft) S-SW 0,00 h 0,000 mm 0,0 UV-I 0 W/m 15,8 C 14,4 C 18,5 km/h (3 Bft) 99,00 %
13.07.2016 01:00 16,2 C 95 % 1011,5 hPa 0,6 l/m 8,1 km/h (2 Bft) S 0,00 h 0,000 mm 0,0 UV-I 0 W/m 15,3 C 15,2 C 13,2 km/h (3 Bft) 97,94 %
13.07.2016 02:00 16,2 C 96 % 1011,1 hPa 0,0 l/m 3,0 km/h (1 Bft) S-SW 0,00 h 0,000 mm 0,0 UV-I 0 W/m 15,6 C 16,2 C 4,7 km/h (1 Bft) 99,20 %
13.07.2016 03:00 16,1 C 96 % 1010,9 hPa 0,0 l/m 3,5 km/h (1 Bft) S 0,00 h 0,000 mm 0,0 UV-I 0 W/m 15,5 C 16,1 C 5,4 km/h (1 Bft) 97,47 %
13.07.2016 04:00 16,2 C 96 % 1011,3 hPa 2,4 l/m 4,4 km/h (1 Bft) S-SW 0,00 h 0,000 mm 0,0 UV-I 0 W/m 15,5 C 16,1 C 6,5 km/h (2 Bft) 99,28 %
13.07.2016 05:00 16,0 C 97 % 1011,5 hPa 0,8 l/m 5,7 km/h (1 Bft) W-SW 0,00 h 0,000 mm 0,0 UV-I 4 W/m 15,5 C 15,7 C 9,1 km/h (2 Bft) 97,97 %
13.07.2016 06:00 15,9 C 97 % 1012,0 hPa 1,2 l/m 5,7 km/h (1 Bft) W-SW 0,00 h 0,000 mm 0,0 UV-I 21 W/m 15,4 C 15,6 C 9,0 km/h (2 Bft) 99,33 %
13.07.2016 07:00 16,2 C 96 % 1012,4 hPa 0,0 l/m 6,5 km/h (2 Bft) SW 0,00 h 0,025 mm 0,0 UV-I 94 W/m 15,6 C 15,9 C 10,5 km/h (2 Bft) 97,92 %
13.07.2016 08:00 16,5 C 95 % 1012,5 hPa 0,0 l/m 4,1 km/h (1 Bft) W 0,00 h 0,051 mm 0,8 UV-I 113 W/m 15,8 C 16,5 C 6,6 km/h (2 Bft) 99,46 %
13.07.2016 09:00 17,5 C 91 % 1012,3 hPa 0,0 l/m 7,1 km/h (2 Bft) W-SW 0,30 h 0,076 mm 1,7 UV-I 312 W/m 16,1 C 17,0 C 11,5 km/h (2 Bft) 98,06 %
13.07.2016 10:00 18,2 C 87 % 1012,2 hPa 0,0 l/m 5,8 km/h (2 Bft) W 0,23 h 0,178 mm 2,6 UV-I 392 W/m 16,0 C 17,9 C 10,8 km/h (2 Bft) 99,57 %
13.07.2016 11:00 18,9 C 82 % 1012,0 hPa 0,0 l/m 5,0 km/h (1 Bft) W-SW 0,07 h 0,229 mm 2,9 UV-I 370 W/m 15,8 C 18,8 C 9,2 km/h (2 Bft) 97,90 %
13.07.2016 12:00 19,6 C 79 % 1011,5 hPa 0,0 l/m 3,3 km/h (1 Bft) NW 0,23 h 0,228 mm 3,6 UV-I 428 W/m 15,9 C 19,6 C 7,0 km/h (2 Bft) 99,17 %
13.07.2016 13:00 19,3 C 80 % 1011,4 hPa 0,0 l/m 2,8 km/h (1 Bft) NW 0,00 h 0,254 mm 1,6 UV-I 202 W/m 15,7 C 19,3 C 5,7 km/h (1 Bft) 97,78 %
13.07.2016 14:00 18,0 C 87 % 1011,0 hPa 1,6 l/m 5,4 km/h (1 Bft) S-SW 0,00 h 0,127 mm 0,6 UV-I 79 W/m 15,8 C 18,0 C 8,6 km/h (2 Bft) 99,13 %
13.07.2016 15:00 17,4 C 93 % 1010,7 hPa 0,8 l/m 3,4 km/h (1 Bft) S 0,00 h 0,051 mm 1,1 UV-I 157 W/m 16,2 C 17,3 C 5,9 km/h (2 Bft) 97,80 %
13.07.2016 16:00 17,7 C 91 % 1010,1 hPa 0,0 l/m 3,7 km/h (1 Bft) W-SW 0,00 h 0,102 mm 0,7 UV-I 108 W/m 16,2 C 17,7 C 6,5 km/h (2 Bft) 99,05 %
13.07.2016 17:00 17,4 C 92 % 1010,2 hPa 0,0 l/m 4,7 km/h (1 Bft) W-SW 0,00 h 0,076 mm 0,0 UV-I 29 W/m 16,0 C 17,4 C 7,9 km/h (2 Bft) 97,55 %
13.07.2016 18:00 16,0 C 93 % 1010,0 hPa 0,4 l/m 5,7 km/h (1 Bft) W-SW 0,00 h 0,025 mm 0,0 UV-I 21 W/m 14,9 C 15,7 C 9,3 km/h (2 Bft) 99,15 %
13.07.2016 19:00 15,5 C 95 % 1010,1 hPa 1,0 l/m 10,1 km/h (2 Bft) SW 0,00 h 0,026 mm 0,0 UV-I 11 W/m 14,6 C 13,7 C 15,4 km/h (3 Bft) 97,39 %
13.07.2016 20:00 15,4 C 96 % 1010,3 hPa 2,4 l/m 8,6 km/h (2 Bft) W-SW 0,00 h 0,025 mm 0,0 UV-I 15 W/m 14,7 C 14,2 C 14,7 km/h (3 Bft) 99,28 %
13.07.2016 21:00 13,4 C 95 % 1011,7 hPa 1,4 l/m 15,3 km/h (3 Bft) W-SW 0,00 h 0,000 mm 0,0 UV-I 0 W/m 12,6 C 9,2 C 22,7 km/h (4 Bft) 97,71 %
13.07.2016 22:00 13,1 C 96 % 1012,7 hPa 1,0 l/m 14,6 km/h (3 Bft) W-SW 0,00 h 0,000 mm 0,0 UV-I 0 W/m 12,6 C 9,1 C 22,1 km/h (4 Bft) 98,73 %
13.07.2016 23:00 13,2 C 97 % 1012,6 hPa 2,4 l/m 12,6 km/h (3 Bft) W-SW 0,00 h 0,000 mm 0,0 UV-I 0 W/m 12,7 C 10,0 C 19,7 km/h (3 Bft) 97,22 %
14.07.2016 00:00 12,5 C 96 % 1012,9 hPa 4,4 l/m 17,4 km/h (3 Bft) SW 0,00 h 0,000 mm 0,0 UV-I 0 W/m 11,8 C 7,3 C 27,5 km/h (4 Bft) 98,62 %
14.07.2016 01:00 11,9 C 95 % 1012,9 hPa 3,2 l/m 16,2 km/h (3 Bft) SW 0,00 h 0,000 mm 0,0 UV-I 0 W/m 11,2 C 7,0 C 26,4 km/h (4 Bft) 97,59 %
14.07.2016 02:00 11,3 C 94 % 1012,2 hPa 0,4 l/m 18,0 km/h (3 Bft) SW 0,00 h 0,000 mm 0,0 UV-I 0 W/m 10,4 C 5,7 C 27,4 km/h (4 Bft) 98,68 %
14.07.2016 03:00 11,2 C 94 % 1011,8 hPa 0,4 l/m 17,1 km/h (3 Bft) SW 0,00 h 0,025 mm 0,0 UV-I 0 W/m 10,3 C 5,8 C 26,4 km/h (4 Bft) 98,03 %
14.07.2016 04:00 11,0 C 95 % 1011,5 hPa 1,0 l/m 18,5 km/h (3 Bft) W-SW 0,00 h 0,000 mm 0,0 UV-I 0 W/m 10,2 C 5,1 C 27,5 km/h (4 Bft) 99,02 %
14.07.2016 05:00 10,9 C 95 % 1011,2 hPa 0,8 l/m 19,2 km/h (3 Bft) SW 0,00 h 0,000 mm 0,0 UV-I 0 W/m 10,1 C 4,7 C 29,3 km/h (5 Bft) 97,18 %
14.07.2016 06:00 11,0 C 95 % 1010,9 hPa 2,6 l/m 21,0 km/h (4 Bft) SW 0,00 h 0,000 mm 0,0 UV-I 20 W/m 10,3 C 4,3 C 32,9 km/h (5 Bft) 98,73 %
14.07.2016 07:00 11,2 C 95 % 1011,0 hPa 1,6 l/m 20,1 km/h (4 Bft) SW 0,00 h 0,026 mm 0,0 UV-I 34 W/m 10,5 C 4,9 C 31,7 km/h (5 Bft) 97,23 %
14.07.2016 08:00 11,5 C 95 % 1010,9 hPa 1,4 l/m 22,5 km/h (4 Bft) SW 0,00 h 0,025 mm 0,4 UV-I 92 W/m 10,7 C 4,6 C 34,9 km/h (5 Bft) 99,13 %
14.07.2016 09:00 11,7 C 95 % 1011,3 hPa 2,4 l/m 21,3 km/h (4 Bft) SW 0,00 h 0,051 mm 0,4 UV-I 96 W/m 10,9 C 5,2 C 32,7 km/h (5 Bft) 97,31 %
14.07.2016 10:00 11,8 C 95 % 1011,8 hPa 2,0 l/m 19,8 km/h (3 Bft) SW 0,00 h 0,051 mm 0,7 UV-I 120 W/m 11,1 C 5,7 C 30,3 km/h (5 Bft) 98,59 %
14.07.2016 11:00 12,2 C 95 % 1012,4 hPa 1,6 l/m 19,7 km/h (3 Bft) SW 0,00 h 0,076 mm 1,1 UV-I 172 W/m 11,4 C 6,3 C 30,2 km/h (5 Bft) 97,82 %
14.07.2016 12:00 12,5 C 95 % 1013,1 hPa 1,4 l/m 16,9 km/h (3 Bft) W-SW 0,00 h 0,102 mm 1,4 UV-I 205 W/m 11,7 C 7,5 C 25,9 km/h (4 Bft) 98,88 %
14.07.2016 13:00 13,1 C 94 % 1013,7 hPa 0,8 l/m 14,8 km/h (3 Bft) SW 0,00 h 0,101 mm 1,5 UV-I 206 W/m 12,1 C 9,0 C 22,9 km/h (4 Bft) 98,12 %
14.07.2016 14:00 13,4 C 93 % 1014,3 hPa 0,2 l/m 15,5 km/h (3 Bft) SW 0,00 h 0,127 mm 0,8 UV-I 109 W/m 12,3 C 9,1 C 24,3 km/h (4 Bft) 98,81 %
14.07.2016 15:00 14,0 C 91 % 1014,8 hPa 0,4 l/m 17,1 km/h (3 Bft) W-SW 0,00 h 0,076 mm 1,7 UV-I 273 W/m 12,5 C 9,3 C 26,6 km/h (4 Bft) 97,59 %
14.07.2016 16:00 14,0 C 92 % 1015,5 hPa 0,0 l/m 16,8 km/h (3 Bft) W-SW 0,10 h 0,153 mm 1,2 UV-I 216 W/m 12,6 C 9,4 C 25,5 km/h (4 Bft) 98,05 %
14.07.2016 17:00 13,4 C 91 % 1016,1 hPa 0,2 l/m 16,3 km/h (3 Bft) W-SW 0,00 h 0,127 mm 0,5 UV-I 110 W/m 12,0 C 8,9 C 25,1 km/h (4 Bft) 97,65 %
14.07.2016 18:00 13,1 C 93 % 1016,6 hPa 0,4 l/m 14,3 km/h (3 Bft) W-SW 0,00 h 0,076 mm 0,0 UV-I 56 W/m 12,0 C 9,2 C 21,2 km/h (4 Bft) 98,11 %
14.07.2016 19:00 12,8 C 93 % 1017,2 hPa 0,4 l/m 12,5 km/h (3 Bft) W-SW 0,00 h 0,051 mm 0,0 UV-I 32 W/m 11,7 C 9,6 C 18,3 km/h (3 Bft) 97,16 %
14.07.2016 20:00 12,8 C 93 % 1017,9 hPa 0,0 l/m 10,9 km/h (2 Bft) W-SW 0,03 h 0,025 mm 0,0 UV-I 14 W/m 11,6 C 10,3 C 17,0 km/h (3 Bft) 99,27 %
14.07.2016 21:00 12,5 C 92 % 1018,7 hPa 0,0 l/m 11,6 km/h (2 Bft) SW 0,00 h 0,026 mm 0,0 UV-I 0 W/m 11,2 C 9,6 C 18,6 km/h (3 Bft) 97,85 %
14.07.2016 22:00 12,0 C 91 % 1019,3 hPa 0,0 l/m 9,8 km/h (2 Bft) W-SW 0,00 h 0,025 mm 0,0 UV-I 0 W/m 10,6 C 9,9 C 15,5 km/h (3 Bft) 98,94 %
14.07.2016 23:00 11,1 C 94 % 1019,8 hPa 0,0 l/m 3,8 km/h (1 Bft) SW 0,00 h 0,000 mm 0,0 UV-I 0 W/m 10,1 C 11,1 C 6,4 km/h (2 Bft) 97,36 %
15.07.2016 00:00 11,1 C 93 % 1020,1 hPa 0,0 l/m 10,0 km/h (2 Bft) W-SW 0,00 h 0,000 mm 0,0 UV-I 0 W/m 10,1 C 9,0 C 15,6 km/h (3 Bft) 99,06 %
15.07.2016 01:00 11,5 C 90 % 1020,3 hPa 0,0 l/m 13,1 km/h (3 Bft) SW 0,00 h 0,000 mm 0,0 UV-I 0 W/m 9,9 C 7,8 C 19,8 km/h (3 Bft) 98,03 %
15.07.2016 02:00 11,4 C 90 % 1020,3 hPa 0,0 l/m 13,7 km/h (3 Bft) W-SW 0,00 h 0,025 mm 0,0 UV-I 0 W/m 9,8 C 7,4 C 20,5 km/h (4 Bft) 98,94 %
15.07.2016 03:00 11,4 C 91 % 1020,4 hPa 0,0 l/m 12,6 km/h (3 Bft) SW 0,00 h 0,026 mm 0,0 UV-I 0 W/m 9,9 C 7,9 C 19,5 km/h (3 Bft) 97,58 %
15.07.2016 04:00 10,9 C 91 % 1020,7 hPa 0,0 l/m 7,8 km/h (2 Bft) W-SW 0,00 h 0,025 mm 0,0 UV-I 0 W/m 9,5 C 9,8 C 12,7 km/h (3 Bft) 99,16 %
15.07.2016 05:00 10,1 C 94 % 1021,0 hPa 0,0 l/m 5,9 km/h (2 Bft) W-SW 0,10 h 0,000 mm 0,0 UV-I 14 W/m 9,1 C 10,0 C 9,9 km/h (2 Bft) 98,16 %
15.07.2016 06:00 10,5 C 94 % 1021,5 hPa 0,0 l/m 7,1 km/h (2 Bft) W-SW 0,00 h 0,000 mm 0,0 UV-I 54 W/m 9,6 C 9,9 C 11,9 km/h (2 Bft) 98,10 %
15.07.2016 07:00 12,3 C 90 % 1021,8 hPa 0,0 l/m 8,6 km/h (2 Bft) W-SW 0,90 h 0,026 mm 0,6 UV-I 242 W/m 10,7 C 10,9 C 14,0 km/h (3 Bft) 98,45 %
15.07.2016 08:00 13,6 C 85 % 1022,2 hPa 0,0 l/m 9,9 km/h (2 Bft) W-SW 0,53 h 0,127 mm 1,1 UV-I 337 W/m 11,0 C 11,7 C 16,5 km/h (3 Bft) 97,99 %
15.07.2016 09:00 14,2 C 81 % 1022,7 hPa 0,0 l/m 7,5 km/h (2 Bft) W-SW 0,43 h 0,177 mm 1,4 UV-I 333 W/m 11,0 C 13,5 C 14,0 km/h (3 Bft) 98,21 %
15.07.2016 10:00 15,1 C 78 % 1022,9 hPa 0,0 l/m 6,9 km/h (2 Bft) W-SW 0,77 h 0,204 mm 3,0 UV-I 485 W/m 11,3 C 14,6 C 13,8 km/h (3 Bft) 99,07 %
15.07.2016 11:00 16,0 C 73 % 1023,1 hPa 0,0 l/m 6,3 km/h (2 Bft) W-SW 0,37 h 0,279 mm 3,3 UV-I 446 W/m 11,2 C 15,5 C 12,5 km/h (3 Bft) 97,85 %
15.07.2016 12:00 15,4 C 74 % 1023,0 hPa 0,0 l/m 4,5 km/h (1 Bft) W-NW 0,00 h 0,279 mm 1,4 UV-I 181 W/m 10,9 C 15,3 C 9,6 km/h (2 Bft) 98,61 %
15.07.2016 13:00 15,7 C 73 % 1023,0 hPa 0,0 l/m 8,4 km/h (2 Bft) W-SW 0,13 h 0,127 mm 2,2 UV-I 289 W/m 10,9 C 14,5 C 15,2 km/h (3 Bft) 97,00 %
15.07.2016 14:00 16,6 C 71 % 1023,0 hPa 0,0 l/m 8,4 km/h (2 Bft) W-SW 0,28 h 0,178 mm 2,9 UV-I 431 W/m 11,4 C 15,4 C 15,4 km/h (3 Bft) 99,09 %
15.07.2016 15:00 15,8 C 77 % 1023,0 hPa 0,0 l/m 8,1 km/h (2 Bft) W 0,03 h 0,254 mm 1,7 UV-I 258 W/m 11,7 C 14,7 C 14,7 km/h (3 Bft) 98,07 %
15.07.2016 16:00 16,6 C 70 % 1022,8 hPa 0,0 l/m 10,9 km/h (2 Bft) W-SW 0,37 h 0,153 mm 2,1 UV-I 433 W/m 11,1 C 14,7 C 19,5 km/h (3 Bft) 99,28 %
15.07.2016 17:00 16,3 C 70 % 1022,9 hPa 0,0 l/m 7,3 km/h (2 Bft) W-SW 0,13 h 0,279 mm 1,0 UV-I 162 W/m 10,8 C 15,5 C 14,6 km/h (3 Bft) 98,00 %
15.07.2016 18:00 15,7 C 76 % 1022,9 hPa 0,0 l/m 7,6 km/h (2 Bft) W-SW 0,00 h 0,102 mm 0,4 UV-I 114 W/m 11,4 C 14,9 C 13,5 km/h (3 Bft) 98,69 %
15.07.2016 19:00 15,5 C 80 % 1023,1 hPa 0,0 l/m 9,5 km/h (2 Bft) SW 0,00 h 0,076 mm 0,0 UV-I 55 W/m 12,1 C 14,0 C 14,8 km/h (3 Bft) 97,52 %
15.07.2016 20:00 14,7 C 83 % 1023,3 hPa 0,0 l/m 8,5 km/h (2 Bft) W-SW 0,03 h 0,051 mm 0,0 UV-I 25 W/m 11,8 C 13,5 C 14,0 km/h (3 Bft) 99,04 %
15.07.2016 21:00 13,8 C 83 % 1023,7 hPa 0,0 l/m 6,0 km/h (2 Bft) W-SW 0,00 h 0,025 mm 0,0 UV-I 1 W/m 10,9 C 13,5 C 10,9 km/h (2 Bft) 97,48 %
15.07.2016 22:00 13,2 C 84 % 1024,1 hPa 0,0 l/m 7,2 km/h (2 Bft) SW 0,00 h 0,025 mm 0,0 UV-I 0 W/m 10,6 C 12,6 C 10,8 km/h (2 Bft) 99,35 %
15.07.2016 23:00 12,9 C 85 % 1024,3 hPa 0,0 l/m 8,5 km/h (2 Bft) W-SW 0,00 h 0,026 mm 0,0 UV-I 0 W/m 10,4 C 11,6 C 13,3 km/h (3 Bft) 97,99 %
16.07.2016 00:00 12,8 C 83 % 1024,5 hPa 0,0 l/m 6,9 km/h (2 Bft) SW 0,00 h 0,000 mm 0,0 UV-I 0 W/m 10,1 C 12,3 C 10,9 km/h (2 Bft) 95,76 %
16.07.2016 01:00 12,7 C 84 % 1024,6 hPa 0,0 l/m 6,5 km/h (2 Bft) SW 0,00 h 0,025 mm 0,0 UV-I 0 W/m 10,0 C 12,5 C 10,0 km/h (2 Bft) 97,88 %
16.07.2016 02:00 12,8 C 86 % 1024,3 hPa 0,0 l/m 5,8 km/h (2 Bft) W-SW 0,00 h 0,026 mm 0,0 UV-I 0 W/m 10,5 C 12,6 C 9,2 km/h (2 Bft) 99,17 %
16.07.2016 03:00 12,7 C 89 % 1023,8 hPa 0,0 l/m 7,3 km/h (2 Bft) W-SW 0,00 h 0,000 mm 0,0 UV-I 0 W/m 10,9 C 12,2 C 11,7 km/h (2 Bft) 97,91 %
16.07.2016 04:00 12,5 C 90 % 1023,7 hPa 0,0 l/m 6,2 km/h (2 Bft) SW 0,00 h 0,000 mm 0,0 UV-I 0 W/m 11,0 C 12,3 C 9,6 km/h (2 Bft) 99,47 %
16.07.2016 05:00 12,3 C 90 % 1023,9 hPa 0,0 l/m 5,9 km/h (2 Bft) W-SW 0,00 h 0,000 mm 0,0 UV-I 14 W/m 10,8 C 12,2 C 9,2 km/h (2 Bft) 98,08 %
16.07.2016 06:00 12,6 C 88 % 1023,8 hPa 0,0 l/m 8,6 km/h (2 Bft) W-SW 0,00 h 0,000 mm 0,0 UV-I 47 W/m 10,7 C 11,3 C 13,1 km/h (3 Bft) 99,58 %
16.07.2016 07:00 13,2 C 84 % 1023,6 hPa 0,0 l/m 7,6 km/h (2 Bft) W-SW 0,00 h 0,025 mm 0,5 UV-I 116 W/m 10,5 C 12,4 C 13,1 km/h (3 Bft) 98,20 %
16.07.2016 08:00 14,0 C 80 % 1024,0 hPa 0,0 l/m 7,9 km/h (2 Bft) W-SW 0,00 h 0,076 mm 0,7 UV-I 183 W/m 10,7 C 12,9 C 13,6 km/h (3 Bft) 99,67 %
16.07.2016 09:00 14,6 C 78 % 1023,8 hPa 0,0 l/m 9,4 km/h (2 Bft) W-SW 0,00 h 0,102 mm 1,3 UV-I 267 W/m 10,9 C 13,0 C 15,7 km/h (3 Bft) 98,36 %
16.07.2016 10:00 15,0 C 76 % 1023,9 hPa 0,0 l/m 9,0 km/h (2 Bft) W-SW 0,00 h 0,152 mm 1,5 UV-I 234 W/m 10,8 C 13,7 C 15,6 km/h (3 Bft) 99,21 %
16.07.2016 11:00 15,8 C 72 % 1023,8 hPa 0,0 l/m 8,9 km/h (2 Bft) W-SW 0,07 h 0,153 mm 2,0 UV-I 281 W/m 10,8 C 14,5 C 15,2 km/h (3 Bft) 97,79 %
16.07.2016 12:00 16,1 C 70 % 1023,6 hPa 0,0 l/m 8,2 km/h (2 Bft) W-SW 0,07 h 0,178 mm 1,9 UV-I 242 W/m 10,5 C 15,1 C 14,3 km/h (3 Bft) 99,52 %
16.07.2016 13:00 16,7 C 68 % 1023,2 hPa 0,0 l/m 9,5 km/h (2 Bft) W-SW 0,27 h 0,152 mm 2,9 UV-I 358 W/m 10,8 C 15,3 C 16,5 km/h (3 Bft) 98,19 %
16.07.2016 14:00 17,8 C 63 % 1022,6 hPa 0,0 l/m 11,3 km/h (2 Bft) W 0,33 h 0,254 mm 3,1 UV-I 402 W/m 10,5 C 15,8 C 19,7 km/h (3 Bft) 99,33 %
16.07.2016 15:00 18,8 C 56 % 1022,1 hPa 0,0 l/m 11,4 km/h (2 Bft) W 0,40 h 0,279 mm 3,1 UV-I 399 W/m 10,0 C 16,9 C 19,6 km/h (3 Bft) 97,76 %
16.07.2016 16:00 19,0 C 55 % 1021,6 hPa 0,0 l/m 12,3 km/h (3 Bft) W-SW 0,13 h 0,331 mm 1,8 UV-I 321 W/m 9,7 C 16,9 C 21,1 km/h (4 Bft) 98,66 %
16.07.2016 17:00 19,5 C 53 % 1021,3 hPa 0,0 l/m 13,4 km/h (3 Bft) W-SW 0,57 h 0,279 mm 1,3 UV-I 315 W/m 9,8 C 17,2 C 21,3 km/h (4 Bft) 98,24 %
16.07.2016 18:00 19,1 C 55 % 1021,0 hPa 0,0 l/m 12,3 km/h (3 Bft) W-SW 0,13 h 0,279 mm 0,7 UV-I 136 W/m 9,8 C 17,0 C 19,6 km/h (3 Bft) 99,18 %
16.07.2016 19:00 18,3 C 61 % 1021,0 hPa 0,0 l/m 12,9 km/h (3 Bft) SW 0,07 h 0,153 mm 0,0 UV-I 80 W/m 10,7 C 15,8 C 19,5 km/h (3 Bft) 98,27 %
16.07.2016 20:00 17,8 C 65 % 1021,0 hPa 0,0 l/m 13,5 km/h (3 Bft) W-SW 0,80 h 0,127 mm 0,0 UV-I 45 W/m 11,1 C 15,1 C 20,7 km/h (4 Bft) 98,86 %
16.07.2016 21:00 17,2 C 67 % 1021,2 hPa 0,0 l/m 15,1 km/h (3 Bft) SW 0,00 h 0,101 mm 0,0 UV-I 5 W/m 11,0 C 13,8 C 23,4 km/h (4 Bft) 98,07 %
16.07.2016 22:00 16,1 C 70 % 1021,2 hPa 0,0 l/m 13,6 km/h (3 Bft) SW 0,00 h 0,077 mm 0,0 UV-I 0 W/m 10,6 C 13,0 C 19,8 km/h (4 Bft) 98,69 %
16.07.2016 23:00 15,2 C 73 % 1021,1 hPa 0,0 l/m 13,1 km/h (3 Bft) SW 0,00 h 0,050 mm 0,0 UV-I 0 W/m 10,4 C 12,1 C 19,1 km/h (3 Bft) 98,29 %
17.07.2016 00:00 15,2 C 72 % 1021,0 hPa 0,0 l/m 11,6 km/h (2 Bft) SW 0,00 h 0,000 mm 0,0 UV-I 0 W/m 10,3 C 12,7 C 17,2 km/h (3 Bft) 98,21 %
17.07.2016 01:00 15,1 C 73 % 1020,7 hPa 0,0 l/m 7,3 km/h (2 Bft) SW 0,00 h 0,051 mm 0,0 UV-I 0 W/m 10,2 C 14,3 C 11,4 km/h (2 Bft) 97,76 %
17.07.2016 02:00 14,5 C 75 % 1020,4 hPa 0,0 l/m 6,2 km/h (2 Bft) SW 0,00 h 0,025 mm 0,0 UV-I 0 W/m 10,1 C 14,2 C 9,7 km/h (2 Bft) 98,81 %
17.07.2016 03:00 13,6 C 80 % 1020,3 hPa 0,0 l/m 6,3 km/h (2 Bft) SW 0,00 h 0,026 mm 0,0 UV-I 0 W/m 10,2 C 13,3 C 9,2 km/h (2 Bft) 98,01 %
17.07.2016 04:00 13,9 C 80 % 1020,3 hPa 0,0 l/m 7,2 km/h (2 Bft) W-SW 0,00 h 0,025 mm 0,0 UV-I 0 W/m 10,5 C 13,4 C 10,3 km/h (2 Bft) 98,30 %
17.07.2016 05:00 14,5 C 80 % 1020,3 hPa 0,0 l/m 7,3 km/h (2 Bft) W-SW 0,00 h 0,025 mm 0,0 UV-I 5 W/m 11,0 C 13,9 C 10,9 km/h (2 Bft) 97,59 %
17.07.2016 06:00 14,8 C 82 % 1020,4 hPa 0,0 l/m 12,6 km/h (3 Bft) W-SW 0,10 h 0,026 mm 0,0 UV-I 35 W/m 11,8 C 11,8 C 19,1 km/h (3 Bft) 99,51 %
17.07.2016 07:00 14,9 C 83 % 1020,4 hPa 0,0 l/m 16,3 km/h (3 Bft) SW 0,33 h 0,051 mm 0,0 UV-I 131 W/m 12,1 C 10,8 C 25,8 km/h (4 Bft) 97,34 %
17.07.2016 08:00 14,6 C 85 % 1020,8 hPa 0,0 l/m 14,6 km/h (3 Bft) SW 0,00 h 0,101 mm 0,0 UV-I 50 W/m 12,1 C 10,9 C 22,8 km/h (4 Bft) 98,96 %
17.07.2016 09:00 14,0 C 91 % 1020,8 hPa 0,0 l/m 10,7 km/h (2 Bft) SW 0,00 h 0,051 mm 0,6 UV-I 52 W/m 12,6 C 11,8 C 17,1 km/h (3 Bft) 98,08 %
17.07.2016 10:00 14,7 C 91 % 1020,6 hPa 0,0 l/m 14,7 km/h (3 Bft) W-SW 0,00 h 0,051 mm 1,3 UV-I 192 W/m 13,3 C 10,9 C 24,0 km/h (4 Bft) 99,49 %
17.07.2016 11:00 14,8 C 92 % 1020,6 hPa 0,2 l/m 14,3 km/h (3 Bft) SW 0,00 h 0,127 mm 1,2 UV-I 156 W/m 13,5 C 11,3 C 22,7 km/h (4 Bft) 97,78 %
17.07.2016 12:00 14,7 C 95 % 1020,6 hPa 0,6 l/m 14,6 km/h (3 Bft) SW 0,00 h 0,101 mm 1,8 UV-I 200 W/m 13,8 C 11,0 C 22,5 km/h (4 Bft) 98,64 %
17.07.2016 13:00 16,1 C 91 % 1020,4 hPa 0,0 l/m 15,1 km/h (3 Bft) SW 0,00 h 0,102 mm 2,3 UV-I 268 W/m 14,6 C 12,6 C 23,9 km/h (4 Bft) 98,23 %
17.07.2016 14:00 17,1 C 86 % 1020,4 hPa 0,0 l/m 14,4 km/h (3 Bft) SW 0,00 h 0,152 mm 1,9 UV-I 236 W/m 14,7 C 14,0 C 23,1 km/h (4 Bft) 98,24 %
17.07.2016 15:00 18,0 C 83 % 1019,9 hPa 0,0 l/m 12,5 km/h (3 Bft) S-SW 0,00 h 0,153 mm 1,2 UV-I 166 W/m 15,0 C 15,6 C 20,9 km/h (4 Bft) 97,76 %
17.07.2016 16:00 19,4 C 79 % 1019,3 hPa 0,0 l/m 15,2 km/h (3 Bft) SW 0,10 h 0,127 mm 1,7 UV-I 279 W/m 15,7 C 16,6 C 24,0 km/h (4 Bft) 98,51 %
17.07.2016 17:00 19,8 C 77 % 1019,0 hPa 0,0 l/m 14,9 km/h (3 Bft) SW 0,00 h 0,203 mm 0,8 UV-I 149 W/m 15,7 C 17,1 C 23,2 km/h (4 Bft) 97,65 %
17.07.2016 18:00 19,6 C 78 % 1019,3 hPa 0,0 l/m 14,8 km/h (3 Bft) W-SW 0,00 h 0,127 mm 0,5 UV-I 114 W/m 15,6 C 16,9 C 21,9 km/h (4 Bft) 98,60 %
17.07.2016 19:00 18,9 C 80 % 1019,6 hPa 0,0 l/m 13,7 km/h (3 Bft) W-SW 0,00 h 0,102 mm 0,0 UV-I 45 W/m 15,4 C 16,4 C 20,2 km/h (4 Bft) 98,16 %
17.07.2016 20:00 17,5 C 88 % 1019,7 hPa 0,4 l/m 7,9 km/h (2 Bft) W-SW 0,00 h 0,076 mm 0,0 UV-I 23 W/m 15,6 C 16,8 C 12,6 km/h (3 Bft) 98,10 %
17.07.2016 21:00 17,2 C 90 % 1019,8 hPa 0,0 l/m 6,0 km/h (2 Bft) S-SW 0,00 h 0,025 mm 0,0 UV-I 0 W/m 15,4 C 17,0 C 9,0 km/h (2 Bft) 97,97 %
17.07.2016 22:00 16,9 C 90 % 1019,8 hPa 0,0 l/m 3,5 km/h (1 Bft) SW 0,00 h 0,000 mm 0,0 UV-I 0 W/m 15,3 C 16,8 C 5,5 km/h (1 Bft) 98,66 %
17.07.2016 23:00 16,5 C 93 % 1020,1 hPa 1,6 l/m 4,0 km/h (1 Bft) N-NO 0,00 h 0,000 mm 0,0 UV-I 0 W/m 15,3 C 16,4 C 7,9 km/h (2 Bft) 98,10 %
Min-Datum _ 15.07.16 11.07.16 11.07.16 - 11.07.16 - - - - - 16.07.16 14.07.16 11.07.16 16.07.16
_ Min-Zeit 05:22 16:16 20:13 - 01:38 - - - - - 16:58 04:56 01:38 00:02
Minimum _ 10,0 C 37 % 1007,3 hPa - 0,0 km/h (0 Bft) - - - - - 8,9 C 2,5 C 0,0 km/h (0 Bft) 5,56 %
Max-Datum _ 11.07.16 12.07.16 16.07.16 12.07.16 11.07.16 - 15.07.16 11.07.16 12.07.16 15.07.16 12.07.16 11.07.16 11.07.16 11.07.16
_ Max-Zeit 16:30 05:26 01:02 19:36 21:29 - 10:03 14:00 12:08 14:16 16:30 16:36 21:29 00:00
Maximum _ 32,9 C 98 % 1024,7 hPa 14,4 l/m 32,8 km/h
SW (5 Bft)
- 0,05 h 0,635 mm 7,9 UV-I 1252 W/m 21,6 C 32,9 C 46,7 km/h
W-SW (6 Bft)
100,00 %
Durchschnitt _ 17,1 C 83 % 1016,0 hPa #93,8 l/m 8,7 km/h (2 Bft) W-SW #22:59 h #17,271 mm 1,9 UV-I 214 W/m 14,0 C 15,6 C 14,1 km/h (3 Bft) 98,32 %